Time;durP1;ratioP1;P1;durP2;ratioP2;P2;SDS_P1;SDS_P2;PMS_P1;PMS_P2;Temp;Humidity;BMP_temperature;BMP_pressure;BME280_temperature;BME280_humidity;BME280_pressure;Samples;Min_cycle;Max_cycle;Signal;HPM_P1;HPM_P2
2021/12/06 00:01:32;;;;;;;22.95;11.57;;;7.20;58.60;;;;;;4990533;28;20056;-79
2021/12/06 00:04:03;;;;;;;23.27;12.25;;;7.10;58.50;;;;;;4990999;28;20038;-79
2021/12/06 00:06:33;;;;;;;24.38;12.40;;;7.10;58.60;;;;;;4991764;28;20045;-77
2021/12/06 00:09:03;;;;;;;26.27;11.98;;;7.20;58.60;;;;;;4990944;28;20042;-80
2021/12/06 00:11:29;;;;;;;22.25;10.93;;;7.20;58.60;;;;;;4990902;28;20092;-79
2021/12/06 00:13:55;;;;;;;24.73;12.40;;;7.10;58.50;;;;;;4992672;28;20030;-79
2021/12/06 00:16:22;;;;;;;26.80;12.18;;;7.10;58.60;;;;;;4991025;28;20034;-79
2021/12/06 00:18:50;;;;;;;26.40;12.80;;;7.10;58.60;;;;;;4990895;28;20041;-79
2021/12/06 00:21:17;;;;;;;24.83;12.25;;;7.10;58.60;;;;;;4989155;28;20038;-80
2021/12/06 00:23:43;;;;;;;24.73;11.98;;;7.10;58.60;;;;;;4991424;28;20041;-78
2021/12/06 00:26:10;;;;;;;24.17;12.35;;;7.10;58.60;;;;;;4972518;28;20042;-77
2021/12/06 00:28:37;;;;;;;23.20;12.43;;;7.10;58.50;;;;;;4990864;28;20092;-78
2021/12/06 00:31:04;;;;;;;22.45;12.27;;;7.10;58.50;;;;;;4989447;28;20049;-77
2021/12/06 00:33:30;;;;;;;22.17;11.90;;;7.10;58.50;;;;;;4987995;28;20061;-77
2021/12/06 00:36:03;;;;;;;26.80;12.60;;;7.10;58.40;;;;;;4988822;28;20117;-78
2021/12/06 00:38:30;;;;;;;23.30;12.50;;;7.10;58.40;;;;;;4988181;28;20065;-79
2021/12/06 00:40:56;;;;;;;27.50;12.68;;;7.10;58.40;;;;;;4988976;28;20169;-79
2021/12/06 00:43:22;;;;;;;25.48;11.88;;;7.10;58.40;;;;;;4985365;28;20030;-79
2021/12/06 00:45:48;;;;;;;28.38;12.27;;;7.10;58.30;;;;;;4971810;28;20479;-80
2021/12/06 00:48:14;;;;;;;25.20;12.35;;;7.10;58.30;;;;;;4984762;28;20038;-79
2021/12/06 00:50:42;;;;;;;28.58;13.10;;;7.10;58.30;;;;;;4969812;28;20485;-80
2021/12/06 00:53:08;;;;;;;25.63;13.00;;;7.10;58.30;;;;;;4984870;28;20073;-80
2021/12/06 00:55:35;;;;;;;26.63;12.75;;;7.10;58.30;;;;;;4985059;28;20034;-79
2021/12/06 00:58:02;;;;;;;23.73;12.52;;;7.10;58.20;;;;;;4971511;28;20030;-80
2021/12/06 01:00:37;;;;;;;24.83;13.00;;;7.00;58.30;;;;;;4985455;28;20045;-80
2021/12/06 01:03:06;;;;;;;27.63;12.77;;;7.00;58.20;;;;;;4981645;28;20413;-79
2021/12/06 01:05:33;;;;;;;23.80;12.50;;;7.00;58.20;;;;;;4984873;28;20056;-80
2021/12/06 01:07:59;;;;;;;25.55;12.50;;;7.10;58.20;;;;;;4984914;28;20081;-79
2021/12/06 01:10:27;;;;;;;25.73;13.18;;;7.10;58.10;;;;;;4983179;28;20038;-79
2021/12/06 01:12:54;;;;;;;26.70;12.00;;;7.00;58.00;;;;;;4982799;28;20162;-79
2021/12/06 01:15:20;;;;;;;27.08;12.75;;;7.00;58.00;;;;;;4966561;28;20062;-79
2021/12/06 01:17:46;;;;;;;26.13;12.57;;;7.00;58.00;;;;;;4972771;28;20125;-79
2021/12/06 01:20:19;;;;;;;24.40;12.40;;;7.00;58.00;;;;;;4982499;28;20035;-78
2021/12/06 01:23:01;;;;;;;21.08;11.15;;;7.00;58.00;;;;;;4986052;28;20034;-78
2021/12/06 01:25:36;;;;;;;25.50;12.63;;;7.00;58.20;;;;;;4983223;28;20038;-79
2021/12/06 01:30:55;;;;;;;21.63;11.85;;;7.00;58.20;;;;;;4983641;28;20047;-78
2021/12/06 01:34:07;;;;;;;23.73;11.30;;;7.00;58.10;;;;;;4981021;28;20027;-80
2021/12/06 01:39:17;;;;;;;22.20;12.15;;;7.00;58.10;;;;;;4981846;28;20042;-78
2021/12/06 01:41:50;;;;;;;24.33;11.57;;;7.00;58.10;;;;;;4980747;28;20156;-78
2021/12/06 01:44:19;;;;;;;23.05;11.00;;;7.00;58.10;;;;;;4983772;28;20497;-79
2021/12/06 01:47:07;;;;;;;27.35;12.57;;;7.00;58.10;;;;;;4983314;28;20045;-78
2021/12/06 01:49:37;;;;;;;25.15;12.43;;;7.00;58.00;;;;;;4980552;28;20089;-79
2021/12/06 01:52:13;;;;;;;26.20;12.35;;;6.90;58.00;;;;;;4983845;28;20560;-79
2021/12/06 01:54:39;;;;;;;24.90;12.02;;;6.90;57.90;;;;;;4982398;28;20038;-78
2021/12/06 01:57:05;;;;;;;22.65;11.18;;;6.90;57.80;;;;;;4982030;28;20027;-78
2021/12/06 01:59:32;;;;;;;19.15;11.25;;;6.90;57.80;;;;;;4982979;28;20449;-78
2021/12/06 02:01:58;;;;;;;25.75;11.98;;;6.90;57.80;;;;;;4983812;28;20125;-78
2021/12/06 02:04:25;;;;;;;25.63;12.27;;;6.90;57.80;;;;;;4953182;28;20128;-79
2021/12/06 02:06:51;;;;;;;24.65;11.25;;;6.90;57.80;;;;;;4981946;28;20045;-78
2021/12/06 02:09:19;;;;;;;23.23;11.73;;;6.90;57.80;;;;;;4982955;28;20062;-79
2021/12/06 02:11:46;;;;;;;20.77;10.70;;;6.90;57.70;;;;;;4982168;28;20073;-78
2021/12/06 02:17:02;;;;;;;19.85;10.48;;;6.90;57.80;;;;;;4984327;28;20037;-79
2021/12/06 02:19:34;;;;;;;21.83;10.98;;;6.90;57.70;;;;;;4981859;28;20038;-79
2021/12/06 02:22:02;;;;;;;20.77;9.98;;;6.90;57.70;;;;;;4981289;28;20030;-78
2021/12/06 02:24:31;;;;;;;21.73;10.55;;;6.90;57.60;;;;;;4970185;28;20042;-79
2021/12/06 02:26:59;;;;;;;22.50;10.93;;;6.90;57.60;;;;;;4982860;28;20477;-79
2021/12/06 02:29:25;;;;;;;20.35;10.48;;;6.90;57.60;;;;;;4982926;28;20066;-78
2021/12/06 02:31:52;;;;;;;23.13;11.25;;;6.90;57.60;;;;;;4983394;28;20499;-77
2021/12/06 02:34:18;;;;;;;20.25;10.65;;;6.90;57.60;;;;;;4981523;28;20035;-79
2021/12/06 02:36:48;;;;;;;22.35;11.05;;;6.90;57.50;;;;;;4983718;28;20256;-79
2021/12/06 02:39:21;;;;;;;23.23;11.23;;;6.80;57.50;;;;;;4981910;28;20038;-78
2021/12/06 02:41:49;;;;;;;23.80;11.95;;;6.80;57.50;;;;;;4982558;28;20072;-78
2021/12/06 02:44:16;;;;;;;19.38;10.10;;;6.80;57.50;;;;;;4983606;28;20416;-78
2021/12/06 02:46:42;;;;;;;24.17;11.65;;;6.80;57.60;;;;;;4980324;28;20074;-79
2021/12/06 02:49:09;;;;;;;22.55;10.95;;;6.80;57.60;;;;;;4981058;28;20030;-78
2021/12/06 02:51:35;;;;;;;22.17;11.20;;;6.80;57.50;;;;;;4981352;28;20065;-79
2021/12/06 02:54:01;;;;;;;21.98;10.45;;;6.80;57.50;;;;;;4965794;28;20124;-78
2021/12/06 02:59:11;;;;;;;20.35;10.32;;;6.80;58.00;;;;;;4968019;28;20045;-78
2021/12/06 03:01:46;;;;;;;20.65;11.13;;;6.80;57.50;;;;;;4986816;28;20030;-78
2021/12/06 03:04:13;;;;;;;21.83;9.70;;;6.80;57.60;;;;;;4984103;28;20122;-78
2021/12/06 03:06:41;;;;;;;22.45;11.50;;;6.80;57.60;;;;;;4986222;28;20034;-78
2021/12/06 03:09:12;;;;;;;22.33;11.35;;;6.70;57.60;;;;;;4985295;28;20489;-78
2021/12/06 03:11:47;;;;;;;21.38;10.88;;;6.70;57.70;;;;;;4984907;28;20030;-78
2021/12/06 03:14:18;;;;;;;19.52;10.18;;;6.70;57.70;;;;;;4984121;28;20497;-76
2021/12/06 03:16:46;;;;;;;21.55;10.98;;;6.70;57.60;;;;;;4967883;28;20501;-78
2021/12/06 03:19:12;;;;;;;22.02;10.77;;;6.70;57.70;;;;;;4984679;28;20042;-77
2021/12/06 03:21:39;;;;;;;21.05;11.15;;;6.70;57.60;;;;;;4983533;28;20030;-77
2021/12/06 03:24:05;;;;;;;21.23;10.98;;;6.70;57.70;;;;;;4970395;28;20066;-79
2021/12/06 03:26:33;;;;;;;20.05;11.27;;;6.70;57.90;;;;;;4982816;28;20038;-78
2021/12/06 03:28:59;;;;;;;19.40;10.00;;;6.70;57.50;;;;;;4967689;28;20048;-79
2021/12/06 03:31:27;;;;;;;19.20;10.13;;;6.70;57.40;;;;;;4952774;28;20047;-78
2021/12/06 03:33:56;;;;;;;18.95;10.23;;;6.70;57.40;;;;;;4983571;28;20054;-78
2021/12/06 03:36:24;;;;;;;21.60;9.93;;;6.70;57.40;;;;;;4967966;28;20030;-79
2021/12/06 03:38:52;;;;;;;19.60;10.57;;;6.70;57.40;;;;;;4983444;28;20093;-77
2021/12/06 03:41:22;;;;;;;21.98;10.57;;;6.70;57.40;;;;;;4988531;28;20417;-78
2021/12/06 03:43:49;;;;;;;18.73;10.10;;;6.60;57.40;;;;;;4983804;28;20062;-79
2021/12/06 03:46:18;;;;;;;19.05;10.80;;;6.70;57.30;;;;;;4982399;28;20030;-78
2021/12/06 03:48:45;;;;;;;18.83;10.55;;;6.70;57.80;;;;;;4983017;28;20093;-78
2021/12/06 03:51:13;;;;;;;22.80;11.38;;;6.60;57.20;;;;;;4986759;28;20645;-78
2021/12/06 03:53:39;;;;;;;21.00;10.40;;;6.70;57.30;;;;;;4983952;28;20026;-78
2021/12/06 03:56:05;;;;;;;18.60;10.02;;;6.70;57.20;;;;;;4983282;28;20034;-79
2021/12/06 03:58:32;;;;;;;20.40;10.43;;;6.70;57.20;;;;;;4981255;28;20035;-77
2021/12/06 04:01:02;;;;;;;18.77;9.68;;;6.60;57.10;;;;;;4980767;28;20481;-79
2021/12/06 04:03:32;;;;;;;19.88;10.02;;;6.60;57.00;;;;;;4981609;28;20026;-78
2021/12/06 04:05:59;;;;;;;19.95;9.70;;;6.70;57.00;;;;;;4965678;28;20608;-79
2021/12/06 04:08:27;;;;;;;18.20;9.57;;;6.60;57.00;;;;;;4982086;28;20031;-79
2021/12/06 04:10:55;;;;;;;18.80;9.60;;;6.60;57.00;;;;;;4983767;28;20038;-80
2021/12/06 04:13:22;;;;;;;18.10;9.60;;;6.60;57.00;;;;;;4963929;28;20505;-80
2021/12/06 04:15:50;;;;;;;18.70;9.23;;;6.60;57.10;;;;;;4981208;28;20030;-77
2021/12/06 04:18:17;;;;;;;19.08;10.27;;;6.60;57.00;;;;;;4982958;28;20504;-78
2021/12/06 04:20:44;;;;;;;18.73;10.88;;;6.60;56.90;;;;;;4985209;28;20088;-78
2021/12/06 04:23:12;;;;;;;20.33;10.40;;;6.60;56.80;;;;;;4984760;28;20420;-78
2021/12/06 04:25:39;;;;;;;23.60;10.48;;;6.60;56.90;;;;;;4984480;28;20050;-78
2021/12/06 04:28:07;;;;;;;18.98;9.93;;;6.50;56.80;;;;;;4982866;28;20034;-79
2021/12/06 04:30:38;;;;;;;14.85;9.05;;;6.60;56.80;;;;;;4981531;28;20080;-78
2021/12/06 04:33:06;;;;;;;17.55;9.50;;;6.50;56.70;;;;;;4968075;28;20033;-78
2021/12/06 04:35:34;;;;;;;17.58;9.40;;;6.60;57.40;;;;;;4981862;28;20046;-79
2021/12/06 04:38:00;;;;;;;16.02;8.77;;;6.50;56.80;;;;;;4985900;28;20057;-78
2021/12/06 04:40:27;;;;;;;19.33;10.23;;;6.50;56.80;;;;;;4972770;28;20489;-79
2021/12/06 04:42:55;;;;;;;16.17;9.52;;;6.50;56.80;;;;;;4982560;28;20034;-78
2021/12/06 04:45:22;;;;;;;15.85;9.38;;;6.50;56.70;;;;;;4983811;28;20505;-78
2021/12/06 04:47:50;;;;;;;17.75;9.43;;;6.60;56.80;;;;;;4984395;28;20038;-79
2021/12/06 04:50:19;;;;;;;18.00;9.07;;;6.50;56.70;;;;;;4980897;28;20509;-78
2021/12/06 04:52:46;;;;;;;14.88;8.88;;;6.50;56.70;;;;;;4982533;28;20034;-79
2021/12/06 04:55:37;;;;;;;15.13;8.65;;;6.50;56.60;;;;;;4981657;28;20272;-78
2021/12/06 04:58:05;;;;;;;17.00;8.80;;;6.50;56.60;;;;;;4985389;28;20062;-78
2021/12/06 05:00:51;;;;;;;16.77;8.88;;;6.50;56.60;;;;;;4983131;28;20113;-78
2021/12/06 05:03:18;;;;;;;18.05;9.25;;;6.50;56.60;;;;;;4986339;28;20038;-79
2021/12/06 05:05:51;;;;;;;15.80;8.82;;;6.50;56.50;;;;;;4969815;28;20038;-78
2021/12/06 05:08:26;;;;;;;17.13;9.13;;;6.50;56.60;;;;;;4985053;28;20505;-78
2021/12/06 05:10:54;;;;;;;17.45;9.05;;;6.50;56.50;;;;;;4982025;28;20058;-78
2021/12/06 05:13:22;;;;;;;18.58;9.40;;;6.40;56.50;;;;;;4984856;28;20668;-79
2021/12/06 05:15:48;;;;;;;17.73;9.10;;;6.40;56.50;;;;;;4981928;28;20026;-79
2021/12/06 05:18:15;;;;;;;17.35;9.02;;;6.40;56.60;;;;;;4981235;28;20035;-78
2021/12/06 05:20:41;;;;;;;19.35;10.27;;;6.40;56.50;;;;;;4971677;28;20058;-79
2021/12/06 05:23:09;;;;;;;17.05;9.88;;;6.40;56.50;;;;;;4982244;28;20416;-79
2021/12/06 05:25:36;;;;;;;19.50;10.18;;;6.50;56.60;;;;;;4981575;28;20037;-79
2021/12/06 05:28:04;;;;;;;19.30;10.23;;;6.40;56.60;;;;;;4983727;28;20116;-79
2021/12/06 05:30:31;;;;;;;22.13;11.75;;;6.40;56.60;;;;;;4982999;28;20897;-77
2021/12/06 05:32:59;;;;;;;18.73;10.32;;;6.40;56.50;;;;;;4982811;28;20402;-79
2021/12/06 05:35:26;;;;;;;23.30;11.40;;;6.40;56.50;;;;;;4982606;28;20421;-79
2021/12/06 05:37:55;;;;;;;18.15;10.23;;;6.40;56.50;;;;;;4983396;28;20061;-79
2021/12/06 05:40:28;;;;;;;23.33;11.52;;;6.40;56.50;;;;;;4984777;28;20040;-78
2021/12/06 05:42:55;;;;;;;20.42;11.48;;;6.40;56.60;;;;;;4986855;28;20501;-79
2021/12/06 05:45:24;;;;;;;22.90;11.15;;;6.40;56.50;;;;;;4986116;28;20108;-79
2021/12/06 05:47:51;;;;;;;24.00;11.25;;;6.30;56.50;;;;;;4986733;28;20034;-79
2021/12/06 05:50:19;;;;;;;19.55;10.45;;;6.40;56.60;;;;;;4985256;28;20039;-79
2021/12/06 05:52:45;;;;;;;22.42;11.07;;;6.30;56.60;;;;;;4986477;28;20077;-79
2021/12/06 05:55:12;;;;;;;23.20;11.20;;;6.30;56.60;;;;;;4986887;28;20046;-79
2021/12/06 05:57:39;;;;;;;25.75;11.30;;;6.30;56.50;;;;;;4986902;28;20058;-79
2021/12/06 06:00:09;;;;;;;22.45;11.10;;;6.30;56.50;;;;;;4986456;28;20080;-78
2021/12/06 06:02:38;;;;;;;20.00;11.57;;;6.30;56.50;;;;;;4986142;28;20030;-78
2021/12/06 06:05:06;;;;;;;22.80;11.77;;;6.30;56.50;;;;;;4984837;28;20568;-78
2021/12/06 06:07:32;;;;;;;26.58;11.68;;;6.30;56.50;;;;;;4969543;28;20038;-77
2021/12/06 06:09:57;;;;;;;25.88;11.10;;;6.30;56.60;;;;;;4986345;28;20042;-78
2021/12/06 06:12:23;;;;;;;21.75;11.63;;;6.30;56.60;;;;;;4985886;28;20030;-78
2021/12/06 06:14:49;;;;;;;24.65;11.68;;;6.30;56.60;;;;;;4984923;28;20034;-77
2021/12/06 06:17:19;;;;;;;26.95;12.95;;;6.30;56.50;;;;;;4986316;28;20145;-78
2021/12/06 06:19:56;;;;;;;21.98;11.30;;;6.30;56.60;;;;;;4985904;28;20030;-80
2021/12/06 06:22:23;;;;;;;24.77;12.05;;;6.30;56.60;;;;;;4986191;28;20162;-80
2021/12/06 06:24:49;;;;;;;21.95;12.73;;;6.30;56.50;;;;;;4966944;28;20086;-77
2021/12/06 06:27:15;;;;;;;24.58;12.52;;;6.30;56.50;;;;;;4986504;28;20046;-79
2021/12/06 06:29:41;;;;;;;22.95;11.45;;;6.30;56.50;;;;;;4985530;28;20034;-79
2021/12/06 06:32:07;;;;;;;27.33;13.10;;;6.30;56.50;;;;;;4984648;28;20544;-78
2021/12/06 06:34:34;;;;;;;24.40;12.30;;;6.30;56.50;;;;;;4985172;28;20160;-80
2021/12/06 06:37:01;;;;;;;27.00;12.50;;;6.30;57.10;;;;;;4986092;28;20448;-77
2021/12/06 06:39:27;;;;;;;22.23;11.38;;;6.20;56.50;;;;;;4983757;28;20034;-78
2021/12/06 06:41:54;;;;;;;23.48;11.95;;;6.20;56.50;;;;;;4985851;28;20041;-80
2021/12/06 06:44:21;;;;;;;27.23;12.68;;;6.20;56.50;;;;;;4982686;28;20034;-80
2021/12/06 06:46:48;;;;;;;23.63;12.50;;;6.30;56.50;;;;;;4983510;28;20053;-78
2021/12/06 06:49:16;;;;;;;23.65;12.05;;;6.30;56.50;;;;;;4983157;28;20539;-82
2021/12/06 06:51:43;;;;;;;23.83;11.77;;;6.30;56.50;;;;;;4985152;28;20022;-80
2021/12/06 06:54:09;;;;;;;26.10;13.00;;;6.30;56.40;;;;;;4982545;28;20493;-79
2021/12/06 06:56:35;;;;;;;24.88;12.52;;;6.30;56.50;;;;;;4984717;28;20046;-80
2021/12/06 06:59:02;;;;;;;25.25;13.02;;;6.30;56.40;;;;;;4983164;28;20044;-80
2021/12/06 07:01:28;;;;;;;25.60;12.55;;;6.20;56.40;;;;;;4983200;28;20072;-79
2021/12/06 07:03:54;;;;;;;31.10;13.52;;;6.20;56.50;;;;;;4982433;28;20116;-79
2021/12/06 07:06:25;;;;;;;28.30;12.75;;;6.20;56.40;;;;;;4981547;28;20320;-79
2021/12/06 07:08:51;;;;;;;26.50;13.27;;;6.20;56.50;;;;;;4982647;28;20685;-79
2021/12/06 07:11:18;;;;;;;28.45;13.30;;;6.20;56.50;;;;;;4982211;28;20035;-80
2021/12/06 07:13:47;;;;;;;28.05;12.48;;;6.30;56.50;;;;;;4982797;28;20026;-80
2021/12/06 07:16:15;;;;;;;28.05;13.30;;;6.20;56.50;;;;;;4982911;28;20030;-80
2021/12/06 07:18:41;;;;;;;30.80;14.73;;;6.20;56.40;;;;;;4982140;28;20125;-79
2021/12/06 07:21:07;;;;;;;24.83;13.30;;;6.20;56.40;;;;;;4981417;28;20098;-78
2021/12/06 07:23:38;;;;;;;26.35;12.90;;;6.20;56.40;;;;;;4983144;28;20037;-80
2021/12/06 07:26:08;;;;;;;31.48;14.57;;;6.20;56.40;;;;;;4981911;28;20116;-80
2021/12/06 07:28:34;;;;;;;32.42;14.00;;;6.20;56.50;;;;;;4981982;28;20034;-79
2021/12/06 07:31:02;;;;;;;29.95;13.30;;;6.20;56.50;;;;;;4982082;28;20046;-79
2021/12/06 07:33:28;;;;;;;31.33;14.50;;;6.20;56.50;;;;;;4982739;28;20076;-78
2021/12/06 07:35:54;;;;;;;28.27;13.18;;;6.20;56.50;;;;;;4980442;28;20045;-81
2021/12/06 07:38:20;;;;;;;29.15;14.52;;;6.20;56.60;;;;;;4982312;28;20042;-80
2021/12/06 07:40:49;;;;;;;31.13;13.85;;;6.20;56.60;;;;;;4981495;28;20547;-81
2021/12/06 07:43:16;;;;;;;26.35;12.85;;;6.30;57.20;;;;;;4980217;28;20047;-81
2021/12/06 07:45:42;;;;;;;29.75;12.68;;;6.40;58.80;;;;;;4981920;28;20038;-81
2021/12/06 07:48:08;;;;;;;30.27;13.07;;;6.40;60.90;;;;;;4981337;28;20041;-79
2021/12/06 07:50:34;;;;;;;22.58;11.10;;;6.50;62.40;;;;;;4979766;28;20511;-82
2021/12/06 07:53:00;;;;;;;26.48;10.93;;;6.50;63.10;;;;;;4986714;28;20133;-80
2021/12/06 07:55:30;;;;;;;27.23;11.68;;;6.60;63.90;;;;;;4985958;28;20181;-82
2021/12/06 07:57:57;;;;;;;31.92;14.68;;;6.70;63.50;;;;;;4984677;28;20039;-81
2021/12/06 08:00:25;;;;;;;38.90;17.13;;;6.70;62.10;;;;;;4985651;28;20031;-80
2021/12/06 08:02:51;;;;;;;35.60;16.60;;;6.60;60.70;;;;;;4985238;28;20445;-81
2021/12/06 08:05:30;;;;;;;35.80;17.50;;;6.50;60.20;;;;;;4984436;28;20045;-82
2021/12/06 08:08:14;;;;;;;44.13;19.23;;;6.30;60.10;;;;;;4983086;28;20038;-79
2021/12/06 08:10:44;;;;;;;43.50;18.92;;;6.10;60.40;;;;;;4986201;28;20038;-81
2021/12/06 08:13:12;;;;;;;39.33;18.75;;;5.80;60.80;;;;;;4968984;28;20564;-81
2021/12/06 08:15:38;;;;;;;40.75;19.17;;;5.70;61.50;;;;;;4985604;28;20045;-80
2021/12/06 08:18:05;;;;;;;41.97;18.90;;;5.70;61.50;;;;;;4983518;28;20141;-78
2021/12/06 08:20:32;;;;;;;40.85;19.88;;;5.60;61.60;;;;;;4982869;28;20041;-78
2021/12/06 08:22:58;;;;;;;41.63;19.38;;;5.60;62.50;;;;;;4987292;28;20026;-78
2021/12/06 08:25:24;;;;;;;36.10;16.00;;;5.60;62.40;;;;;;4987506;28;20041;-78
2021/12/06 08:27:51;;;;;;;32.38;16.13;;;5.60;62.50;;;;;;4987169;28;20030;-78
2021/12/06 08:30:22;;;;;;;30.38;14.00;;;5.60;62.70;;;;;;4986973;28;20034;-78
2021/12/06 08:32:53;;;;;;;26.75;13.32;;;5.50;62.70;;;;;;4988018;28;20042;-80
2021/12/06 08:35:19;;;;;;;26.35;12.23;;;5.50;62.60;;;;;;4987477;28;20536;-81
2021/12/06 08:37:46;;;;;;;24.75;13.05;;;5.50;62.40;;;;;;4987362;28;20484;-84
2021/12/06 08:40:14;;;;;;;24.33;11.85;;;5.30;62.50;;;;;;4986606;28;20078;-82
2021/12/06 08:42:41;;;;;;;26.15;12.18;;;5.30;62.60;;;;;;4987737;28;20036;-83
2021/12/06 08:45:08;;;;;;;22.45;11.73;;;5.20;62.80;;;;;;4988273;28;20042;-83
2021/12/06 08:47:34;;;;;;;26.40;13.15;;;5.30;62.90;;;;;;4989085;28;20034;-83
2021/12/06 08:50:01;;;;;;;27.05;12.98;;;5.30;63.00;;;;;;4986796;28;20042;-80
2021/12/06 08:52:27;;;;;;;29.55;13.98;;;5.30;62.70;;;;;;4988164;28;20052;-81
2021/12/06 08:54:53;;;;;;;26.88;13.35;;;5.30;62.80;;;;;;4987760;28;20037;-83
2021/12/06 08:57:19;;;;;;;29.33;15.10;;;5.20;62.80;;;;;;4988868;28;20392;-84
2021/12/06 08:59:45;;;;;;;29.17;14.18;;;5.20;62.40;;;;;;4971565;28;20038;-83
2021/12/06 09:02:12;;;;;;;27.33;13.73;;;5.10;61.40;;;;;;4987307;28;20129;-78
2021/12/06 09:04:40;;;;;;;31.08;15.68;;;5.00;61.20;;;;;;4986271;28;20045;-81
2021/12/06 09:07:12;;;;;;;30.27;14.60;;;5.10;60.70;;;;;;4986750;28;20068;-79
2021/12/06 09:09:45;;;;;;;30.63;14.93;;;5.00;60.40;;;;;;4985283;28;20038;-78
2021/12/06 09:12:14;;;;;;;32.67;15.95;;;5.10;60.30;;;;;;4986351;28;20049;-78
2021/12/06 09:14:40;;;;;;;33.08;16.02;;;5.00;60.30;;;;;;4986529;28;20457;-77
2021/12/06 09:17:06;;;;;;;34.95;16.42;;;4.90;60.20;;;;;;4986918;28;20038;-78
2021/12/06 09:19:33;;;;;;;33.45;16.67;;;4.90;60.30;;;;;;4987295;28;20034;-78
2021/12/06 09:21:59;;;;;;;35.72;16.35;;;4.90;60.30;;;;;;4983930;28;20069;-77
2021/12/06 09:24:24;;;;;;;33.38;16.10;;;4.90;60.20;;;;;;4984690;28;20486;-78
2021/12/06 09:26:51;;;;;;;35.00;17.05;;;4.80;60.50;;;;;;4985887;28;20335;-77
2021/12/06 09:29:18;;;;;;;37.63;17.58;;;4.70;60.80;;;;;;4985449;28;20133;-76
2021/12/06 09:31:45;;;;;;;35.05;16.77;;;4.70;60.80;;;;;;4985764;28;20058;-76
2021/12/06 09:34:12;;;;;;;33.83;15.95;;;4.70;60.40;;;;;;4985106;28;20049;-77
2021/12/06 09:36:38;;;;;;;33.08;17.02;;;4.70;60.50;;;;;;4985922;28;20026;-78
2021/12/06 09:39:06;;;;;;;35.33;17.02;;;4.60;60.70;;;;;;4986500;28;20231;-77
2021/12/06 09:41:32;;;;;;;38.95;18.65;;;4.50;61.00;;;;;;4984907;28;20034;-78
2021/12/06 09:44:00;;;;;;;37.63;18.50;;;4.40;61.00;;;;;;4987892;28;20089;-77
2021/12/06 09:46:29;;;;;;;36.70;19.00;;;4.40;61.00;;;;;;4985526;28;20050;-76
2021/12/06 09:48:55;;;;;;;40.40;18.75;;;4.50;60.50;;;;;;4986570;28;20420;-77
2021/12/06 09:51:25;;;;;;;35.50;17.38;;;4.50;61.10;;;;;;4969777;28;20034;-77
2021/12/06 09:53:54;;;;;;;39.25;18.20;;;4.40;60.80;;;;;;4985641;28;20809;-76
2021/12/06 09:56:27;;;;;;;38.95;19.48;;;4.40;60.70;;;;;;4985492;28;20056;-77
2021/12/06 09:58:54;;;;;;;39.15;19.80;;;4.40;60.70;;;;;;4985478;28;20038;-77
2021/12/06 10:01:24;;;;;;;42.17;20.25;;;4.30;60.70;;;;;;4986632;28;20038;-77
2021/12/06 10:03:53;;;;;;;34.67;17.83;;;4.30;60.50;;;;;;4985136;28;20533;-77
2021/12/06 10:06:21;;;;;;;41.38;19.63;;;4.30;60.40;;;;;;4986307;28;20050;-79
2021/12/06 10:08:50;;;;;;;40.15;19.75;;;4.30;60.60;;;;;;4986506;28;20030;-77
2021/12/06 10:11:19;;;;;;;40.58;19.70;;;4.30;60.60;;;;;;4987135;28;20038;-82
2021/12/06 10:13:46;;;;;;;36.67;18.80;;;4.40;60.50;;;;;;4985599;28;20382;-82
2021/12/06 10:16:12;;;;;;;34.13;18.33;;;4.50;61.50;;;;;;4983062;28;20328;-80
2021/12/06 10:18:40;;;;;;;32.67;16.58;;;4.50;63.20;;;;;;4968347;28;20461;-81
2021/12/06 10:21:07;;;;;;;37.70;18.42;;;4.70;62.80;;;;;;4969183;28;20461;-83
2021/12/06 10:23:37;;;;;;;34.60;16.08;;;4.80;62.00;;;;;;4985013;28;20042;-83
2021/12/06 10:26:05;;;;;;;32.15;17.13;;;4.90;61.40;;;;;;4984811;28;20036;-83
2021/12/06 10:28:31;;;;;;;33.05;17.52;;;5.00;60.90;;;;;;4984195;28;20041;-82
2021/12/06 10:31:02;;;;;;;33.65;17.30;;;5.00;60.50;;;;;;4983773;28;20472;-82
2021/12/06 10:33:32;;;;;;;30.88;16.42;;;5.10;60.20;;;;;;4984893;28;20121;-80
2021/12/06 10:36:04;;;;;;;32.97;17.05;;;5.10;59.90;;;;;;4985262;28;20068;-81
2021/12/06 10:38:33;;;;;;;32.70;17.25;;;5.20;59.80;;;;;;4985085;28;20101;-81
2021/12/06 10:41:15;;;;;;;30.70;16.40;;;5.20;59.70;;;;;;4983312;28;20121;-82
2021/12/06 10:43:54;;;;;;;32.38;16.58;;;5.20;59.50;;;;;;4985008;28;20049;-80
2021/12/06 10:46:23;;;;;;;34.95;17.20;;;5.30;59.60;;;;;;4984162;28;20038;-80
2021/12/06 10:48:52;;;;;;;32.22;16.52;;;5.30;59.40;;;;;;4983246;28;20052;-83
2021/12/06 10:51:19;;;;;;;32.25;17.17;;;5.30;59.20;;;;;;4984718;28;20022;-86
2021/12/06 10:54:07;;;;;;;30.67;16.98;;;5.40;59.10;;;;;;4984564;28;20085;-85
2021/12/06 10:56:43;;;;;;;29.00;15.60;;;5.40;59.10;;;;;;4983974;28;20938;-84
2021/12/06 10:59:19;;;;;;;29.23;15.32;;;5.40;58.90;;;;;;4965797;28;20082;-80
2021/12/06 11:01:48;;;;;;;28.85;15.50;;;5.40;58.70;;;;;;4985448;28;20030;-84
2021/12/06 11:04:17;;;;;;;28.70;16.20;;;5.40;58.60;;;;;;4985696;28;20048;-84
2021/12/06 11:06:47;;;;;;;26.63;14.80;;;5.40;58.50;;;;;;4985757;28;20042;-88
2021/12/06 11:09:38;;;;;;;27.17;15.05;;;5.40;58.50;;;;;;4986256;28;20030;-83
2021/12/06 11:12:06;;;;;;;26.58;14.55;;;5.50;58.50;;;;;;4975744;28;20038;-83
2021/12/06 11:14:42;;;;;;;26.75;15.02;;;5.50;58.50;;;;;;4969179;28;20532;-82
2021/12/06 11:17:19;;;;;;;25.25;14.98;;;5.50;58.40;;;;;;4985901;28;20648;-87
2021/12/06 11:19:48;;;;;;;26.08;14.60;;;5.50;58.40;;;;;;4990157;28;20038;-87
2021/12/06 11:22:20;;;;;;;26.75;14.98;;;5.50;58.40;;;;;;4987766;28;20480;-86
2021/12/06 11:24:51;;;;;;;23.00;14.00;;;5.50;58.30;;;;;;4985940;28;20049;-81
2021/12/06 11:27:29;;;;;;;27.02;14.23;;;5.50;58.40;;;;;;4984117;28;20328;-84
2021/12/06 11:30:06;;;;;;;23.02;13.82;;;5.50;58.30;;;;;;4985402;28;20035;-83
2021/12/06 11:32:43;;;;;;;24.20;13.45;;;5.50;58.30;;;;;;4982577;28;20054;-83
2021/12/06 11:35:15;;;;;;;24.98;14.35;;;5.50;58.20;;;;;;4985209;28;20034;-84
2021/12/06 11:37:55;;;;;;;28.17;14.07;;;5.50;58.30;;;;;;4983599;28;20509;-82
2021/12/06 11:40:22;;;;;;;22.20;13.25;;;5.50;58.20;;;;;;4985750;28;20030;-82
2021/12/06 11:42:51;;;;;;;23.15;13.52;;;5.50;58.20;;;;;;4985003;28;20120;-83
2021/12/06 11:45:39;;;;;;;27.02;14.93;;;5.50;58.20;;;;;;4965759;28;20042;-84
2021/12/06 11:48:10;;;;;;;24.83;14.05;;;5.50;58.20;;;;;;4971293;28;20046;-83
2021/12/06 11:50:43;;;;;;;24.55;14.35;;;5.50;58.20;;;;;;4981751;28;20256;-82
2021/12/06 11:53:10;;;;;;;25.17;14.48;;;5.50;58.20;;;;;;4983798;28;20484;-82
2021/12/06 11:55:42;;;;;;;23.95;13.25;;;5.50;58.20;;;;;;4981916;28;20422;-83
2021/12/06 11:58:42;;;;;;;23.67;13.18;;;5.50;58.20;;;;;;4984401;28;20092;-82
2021/12/06 12:01:22;;;;;;;24.13;13.85;;;5.50;58.40;;;;;;4978819;28;20039;-82
2021/12/06 12:03:56;;;;;;;22.55;12.85;;;5.50;58.30;;;;;;4983085;28;20042;-82
2021/12/06 12:06:26;;;;;;;24.45;13.27;;;5.50;58.30;;;;;;4982311;28;20385;-83
2021/12/06 12:09:04;;;;;;;22.23;13.10;;;5.50;58.20;;;;;;4983369;28;20034;-85
2021/12/06 12:11:30;;;;;;;23.00;13.30;;;5.50;58.20;;;;;;4984409;28;20050;-81
2021/12/06 12:13:58;;;;;;;25.65;14.05;;;5.50;58.10;;;;;;4984554;28;20038;-84
2021/12/06 12:16:24;;;;;;;22.00;12.40;;;5.50;58.10;;;;;;4984544;28;20034;-85
2021/12/06 12:18:50;;;;;;;20.05;11.55;;;5.50;59.00;;;;;;4984550;28;20052;-83
2021/12/06 12:21:16;;;;;;;20.63;11.40;;;5.60;59.70;;;;;;4985044;28;20524;-83
2021/12/06 12:23:43;;;;;;;16.38;9.95;;;5.70;61.30;;;;;;4982988;28;20417;-83
2021/12/06 12:26:18;;;;;;;15.75;9.82;;;5.80;63.00;;;;;;4985844;28;21420;-84
2021/12/06 12:28:52;;;;;;;16.35;9.65;;;5.90;64.00;;;;;;4986741;28;20033;-84
2021/12/06 12:31:23;;;;;;;17.55;9.57;;;5.90;64.30;;;;;;4967524;28;20056;-87
2021/12/06 12:33:50;;;;;;;14.20;8.52;;;6.00;64.30;;;;;;4984098;28;20503;-85
2021/12/06 12:36:19;;;;;;;15.73;8.60;;;6.10;64.20;;;;;;4984863;28;20065;-85
2021/12/06 12:38:48;;;;;;;11.63;7.28;;;6.10;64.30;;;;;;4986445;28;20030;-86
2021/12/06 12:41:17;;;;;;;11.88;7.35;;;6.20;64.60;;;;;;4985989;28;20030;-87
2021/12/06 12:43:52;;;;;;;12.73;7.45;;;6.30;64.80;;;;;;4989841;28;20497;-90
2021/12/06 12:46:39;;;;;;;14.18;8.05;;;6.30;65.00;;;;;;4992514;28;20026;-90
2021/12/06 12:49:21;;;;;;;13.13;8.73;;;6.40;65.00;;;;;;4996562;28;20501;-89
2021/12/06 12:51:53;;;;;;;11.95;8.13;;;6.40;64.90;;;;;;4990333;28;20026;-89
2021/12/06 12:54:24;;;;;;;13.55;7.68;;;6.50;64.80;;;;;;4988457;28;20077;-88
2021/12/06 12:57:06;;;;;;;18.30;9.00;;;6.50;64.60;;;;;;4987633;28;20037;-86
2021/12/06 12:59:45;;;;;;;15.35;9.07;;;6.60;64.60;;;;;;4976112;28;20092;-89